Time;durP1;ratioP1;P1;durP2;ratioP2;P2;SDS_P1;SDS_P2;PMS_P1;PMS_P2;Temp;Humidity;BMP_temperature;BMP_pressure;BME280_temperature;BME280_humidity;BME280_pressure;Samples;Min_cycle;Max_cycle;Signal;HPM_P1;HPM_P2
2021/06/11 00:01:47;;;;;;;5.50;5.00;;;;;;;13.70;86.73;99327.09;6097031;23;20026;-80
2021/06/11 00:04:13;;;;;;;5.30;4.90;;;;;;;13.70;86.61;99318.94;6123046;23;20037;-79
2021/06/11 00:06:39;;;;;;;5.13;4.60;;;;;;;13.69;86.75;99316.44;6129328;23;20453;-80
2021/06/11 00:09:07;;;;;;;5.05;4.65;;;;;;;13.68;86.95;99315.59;6132105;23;20025;-80
2021/06/11 00:11:33;;;;;;;5.57;4.68;;;;;;;13.71;86.49;99317.94;6132722;23;20357;-80
2021/06/11 00:13:59;;;;;;;6.18;5.18;;;;;;;13.74;86.76;99323.00;6131272;23;20057;-80
2021/06/11 00:16:25;;;;;;;4.93;4.53;;;;;;;13.70;86.66;99321.66;6132119;23;20046;-80
2021/06/11 00:18:51;;;;;;;4.57;4.28;;;;;;;13.69;86.74;99316.44;6135052;23;20505;-77
2021/06/11 00:21:17;;;;;;;4.97;4.57;;;;;;;13.70;86.65;99316.22;6135243;23;20018;-83
2021/06/11 00:23:43;;;;;;;4.72;4.32;;;;;;;13.70;86.47;99313.50;6100242;23;20032;-81
2021/06/11 00:26:08;;;;;;;4.72;4.32;;;;;;;13.65;86.91;99315.94;6124832;23;20018;-79
2021/06/11 00:28:34;;;;;;;5.25;4.85;;;;;;;13.64;87.13;99303.38;6123603;23;20508;-78
2021/06/11 00:31:00;;;;;;;4.70;4.32;;;;;;;13.61;86.73;99308.34;6122776;23;20022;-79
2021/06/11 00:33:26;;;;;;;4.40;4.10;;;;;;;13.68;86.95;99295.72;6122708;23;20109;-80
2021/06/11 00:35:53;;;;;;;4.60;4.25;;;;;;;13.70;86.21;99302.66;6123091;23;20336;-77
2021/06/11 00:38:19;;;;;;;4.65;4.10;;;;;;;13.71;86.25;99303.50;6123441;23;20121;-81
2021/06/11 00:40:45;;;;;;;4.22;3.92;;;;;;;13.71;86.17;99298.94;6122795;23;20384;-80
2021/06/11 00:43:13;;;;;;;4.28;3.97;;;;;;;13.77;86.21;99307.38;6097303;23;20098;-79
2021/06/11 00:45:42;;;;;;;4.13;3.83;;;;;;;13.71;86.09;99309.78;6120833;23;20354;-79
2021/06/11 00:48:09;;;;;;;3.97;3.67;;;;;;;13.70;85.98;99302.66;6072621;23;20033;-76
2021/06/11 00:50:36;;;;;;;4.13;3.83;;;;;;;13.64;86.08;99307.97;6121088;23;20125;-79
2021/06/11 00:53:03;;;;;;;3.65;3.35;;;;;;;13.70;86.06;99307.25;6121060;23;20026;-80
2021/06/11 00:55:30;;;;;;;3.97;3.67;;;;;;;13.67;86.10;99303.00;6122779;23;20018;-80
2021/06/11 00:57:57;;;;;;;3.60;3.40;;;;;;;13.68;86.04;99307.44;6120448;23;20072;-79
2021/06/11 01:00:23;;;;;;;3.78;3.47;;;;;;;13.67;86.15;99302.16;6096634;23;20022;-80
2021/06/11 01:02:48;;;;;;;3.72;3.42;;;;;;;13.69;85.87;99311.84;6072731;23;20029;-80
2021/06/11 01:05:14;;;;;;;3.67;3.38;;;;;;;13.68;85.52;99304.72;6123607;23;20017;-78
2021/06/11 01:07:43;;;;;;;3.63;3.42;;;;;;;13.67;85.70;99305.72;6146040;23;20360;-80
2021/06/11 01:10:11;;;;;;;3.53;3.22;;;;;;;13.63;85.77;99307.09;6121755;23;20437;-81
2021/06/11 01:12:38;;;;;;;3.70;3.40;;;;;;;13.62;86.05;99304.59;6122014;23;20349;-79
2021/06/11 01:15:06;;;;;;;3.50;3.25;;;;;;;13.62;85.81;99299.16;6123062;23;20068;-80
2021/06/11 01:17:35;;;;;;;3.03;2.83;;;;;;;13.58;86.18;99305.97;6122631;23;20022;-80
2021/06/11 01:20:12;;;;;;;3.65;3.35;;;;;;;13.60;86.67;99312.94;6122454;23;20212;-79
2021/06/11 01:22:50;;;;;;;3.40;3.20;;;;;;;13.55;86.38;99307.16;6123629;23;20105;-79
2021/06/11 01:25:20;;;;;;;3.85;3.50;;;;;;;13.59;85.94;99300.34;6122516;23;20049;-78
2021/06/11 01:27:46;;;;;;;4.15;3.85;;;;;;;13.59;85.68;99304.94;6072269;23;20032;-79
2021/06/11 01:30:23;;;;;;;4.03;3.72;;;;;;;13.64;85.34;99303.38;6123440;23;20014;-78
2021/06/11 01:32:51;;;;;;;4.70;4.38;;;;;;;13.67;84.80;99302.16;6071821;23;20030;-79
2021/06/11 01:35:22;;;;;;;4.50;4.10;;;;;;;13.66;84.66;99306.75;6120383;23;20018;-80
2021/06/11 01:37:54;;;;;;;4.13;3.83;;;;;;;13.65;84.75;99315.94;6122551;23;20026;-80
2021/06/11 01:40:20;;;;;;;4.28;3.97;;;;;;;13.67;84.75;99308.44;6121049;23;20022;-79
2021/06/11 01:42:47;;;;;;;3.83;3.60;;;;;;;13.64;84.39;99303.38;6120993;23;20029;-78
2021/06/11 01:45:13;;;;;;;4.60;4.05;;;;;;;13.65;84.70;99302.34;6122242;23;20018;-80
2021/06/11 01:47:46;;;;;;;4.20;3.90;;;;;;;13.67;84.63;99313.03;6145131;23;20080;-79
2021/06/11 01:50:17;;;;;;;6.28;3.75;;;;;;;13.63;84.51;99315.25;6121046;23;20017;-81
2021/06/11 01:52:44;;;;;;;3.47;3.17;;;;;;;13.60;84.15;99318.34;6120835;23;20036;-79
2021/06/11 01:55:10;;;;;;;3.22;3.03;;;;;;;13.61;84.42;99309.19;6097182;23;20025;-79
2021/06/11 01:57:36;;;;;;;3.60;2.90;;;;;;;13.63;84.01;99320.69;6122554;23;20040;-78
2021/06/11 02:00:04;;;;;;;3.00;2.80;;;;;;;13.67;84.53;99307.59;6120510;23;20432;-81
2021/06/11 02:02:31;;;;;;;2.70;2.50;;;;;;;13.67;84.18;99319.31;6120164;23;20049;-80
2021/06/11 02:04:57;;;;;;;2.95;2.70;;;;;;;13.67;83.83;99319.31;6120580;23;20018;-80
2021/06/11 02:07:24;;;;;;;2.90;2.70;;;;;;;13.73;83.81;99323.19;6120142;23;20030;-80
2021/06/11 02:09:50;;;;;;;3.22;3.03;;;;;;;13.70;84.43;99323.53;6122703;23;20029;-79
2021/06/11 02:12:17;;;;;;;3.30;3.10;;;;;;;13.70;83.83;99324.38;6121685;23;20433;-81
2021/06/11 02:14:44;;;;;;;3.20;2.90;;;;;;;13.70;83.80;99318.94;6072560;23;20361;-80
2021/06/11 02:17:10;;;;;;;3.00;2.80;;;;;;;13.63;84.30;99312.53;6121185;23;20018;-80
2021/06/11 02:19:37;;;;;;;2.80;2.55;;;;;;;13.63;84.09;99315.25;6120226;23;20045;-80
2021/06/11 02:22:03;;;;;;;2.58;2.40;;;;;;;13.64;83.31;99318.84;6120724;23;20029;-80
2021/06/11 02:24:31;;;;;;;3.00;2.80;;;;;;;13.61;83.90;99317.31;6120141;23;20073;-80
2021/06/11 02:26:59;;;;;;;2.45;2.25;;;;;;;13.59;84.02;99327.50;6120054;23;20022;-80
2021/06/11 02:29:24;;;;;;;3.20;2.97;;;;;;;13.66;83.14;99328.47;6096352;23;20018;-79
2021/06/11 02:31:50;;;;;;;2.60;2.40;;;;;;;13.62;83.29;99332.59;6121564;23;20029;-80
2021/06/11 02:34:16;;;;;;;2.13;2.03;;;;;;;13.57;83.32;99329.56;6119982;23;20142;-80
2021/06/11 02:36:42;;;;;;;2.58;1.98;;;;;;;13.63;83.19;99334.28;6120565;23;20120;-78
2021/06/11 02:39:08;;;;;;;2.65;2.45;;;;;;;13.68;83.59;99336.47;6121822;23;20021;-79
2021/06/11 02:41:38;;;;;;;2.83;2.20;;;;;;;13.61;83.14;99336.34;6120462;23;20018;-82
2021/06/11 02:44:07;;;;;;;2.20;2.00;;;;;;;13.65;83.75;99336.81;6119884;23;20105;-82
2021/06/11 02:46:39;;;;;;;2.30;2.10;;;;;;;13.58;84.64;99331.25;6121181;23;20069;-79
2021/06/11 02:49:12;;;;;;;2.15;2.05;;;;;;;13.54;84.90;99334.50;6119779;23;20387;-80
2021/06/11 02:51:42;;;;;;;2.20;2.00;;;;;;;13.62;84.37;99331.75;6119573;23;20436;-80
2021/06/11 02:54:11;;;;;;;1.85;1.75;;;;;;;13.64;84.77;99335.97;6122294;23;20018;-80
2021/06/11 02:56:38;;;;;;;1.80;1.70;;;;;;;13.68;83.53;99336.47;6095654;23;20072;-80
2021/06/11 02:59:07;;;;;;;1.70;1.60;;;;;;;13.65;83.71;99332.22;6096201;23;20088;-79
2021/06/11 03:01:36;;;;;;;1.77;1.67;;;;;;;13.63;83.63;99328.84;6121511;23;20025;-80
2021/06/11 03:04:03;;;;;;;2.90;1.70;;;;;;;13.63;83.98;99339.69;6095680;23;20044;-79
2021/06/11 03:06:30;;;;;;;1.73;1.63;;;;;;;13.59;84.68;99335.66;6121772;23;20030;-79
2021/06/11 03:08:57;;;;;;;2.88;1.58;;;;;;;13.57;84.70;99335.00;6120278;23;20421;-81
2021/06/11 03:11:29;;;;;;;1.67;1.58;;;;;;;13.57;84.88;99329.56;6095991;23;20145;-79
2021/06/11 03:13:56;;;;;;;1.92;1.70;;;;;;;13.54;85.45;99329.09;6120448;23;20030;-81
2021/06/11 03:16:26;;;;;;;1.60;1.50;;;;;;;13.50;86.00;99328.59;6071532;23;20077;-79
2021/06/11 03:19:08;;;;;;;1.80;1.70;;;;;;;13.54;85.72;99329.09;6095797;23;20026;-82
2021/06/11 03:21:48;;;;;;;1.80;1.70;;;;;;;13.53;85.29;99333.69;6121063;23;20345;-80
2021/06/11 03:24:44;;;;;;;1.98;1.70;;;;;;;13.57;84.79;99337.72;6123745;23;20224;-80
2021/06/11 03:27:09;;;;;;;1.75;1.65;;;;;;;13.54;84.81;99340.78;6091509;23;20108;-80
2021/06/11 03:29:40;;;;;;;1.83;1.60;;;;;;;13.49;85.42;99340.47;6123220;23;20101;-81
2021/06/11 03:32:09;;;;;;;1.77;1.67;;;;;;;13.50;85.56;99334.03;6098134;23;20026;-81
2021/06/11 03:34:38;;;;;;;2.67;1.50;;;;;;;13.55;85.37;99341.63;6120736;23;20034;-82
2021/06/11 03:37:09;;;;;;;1.73;1.63;;;;;;;13.54;85.12;99343.50;6124745;23;20033;-82
2021/06/11 03:39:49;;;;;;;1.70;1.60;;;;;;;13.56;85.08;99348.75;6124807;23;20026;-79
2021/06/11 03:42:17;;;;;;;1.73;1.63;;;;;;;13.58;84.98;99342.13;6125372;23;20101;-80
2021/06/11 03:44:45;;;;;;;1.75;1.35;;;;;;;13.60;84.72;99345.53;6123598;23;20089;-79
2021/06/11 03:47:13;;;;;;;2.00;1.80;;;;;;;13.64;84.72;99349.56;6122091;23;20030;-80
2021/06/11 03:49:40;;;;;;;1.98;1.75;;;;;;;13.71;84.93;99346.97;6073826;23;20150;-80
2021/06/11 03:52:07;;;;;;;1.90;1.80;;;;;;;13.72;84.67;99343.25;6097548;23;20577;-79
2021/06/11 03:54:33;;;;;;;1.85;1.75;;;;;;;13.84;84.72;99346.38;6122550;23;20100;-78
2021/06/11 03:57:00;;;;;;;1.85;1.75;;;;;;;13.92;84.38;99346.31;6122557;23;20057;-81
2021/06/11 03:59:28;;;;;;;1.65;1.55;;;;;;;13.94;84.52;99341.56;6124371;23;20073;-80
2021/06/11 04:01:55;;;;;;;2.60;2.42;;;;;;;13.98;83.94;99348.31;6121476;23;20464;-81
2021/06/11 04:04:21;;;;;;;2.15;1.70;;;;;;;14.06;84.14;99345.53;6099400;23;20105;-82
2021/06/11 04:06:52;;;;;;;1.92;1.83;;;;;;;14.10;83.77;99344.16;6123088;23;20042;-81
2021/06/11 04:09:22;;;;;;;2.00;1.90;;;;;;;14.10;83.70;99346.88;6122686;23;20057;-80
2021/06/11 04:11:54;;;;;;;1.70;1.60;;;;;;;14.13;83.90;99346.50;6098375;23;20124;-80
2021/06/11 04:14:24;;;;;;;1.75;1.65;;;;;;;14.14;83.75;99348.19;6123143;23;20022;-81
2021/06/11 04:16:51;;;;;;;1.88;1.77;;;;;;;14.12;84.24;99349.44;6124081;23;20069;-81
2021/06/11 04:19:24;;;;;;;1.73;1.63;;;;;;;14.11;84.04;99345.84;6124562;23;20018;-82
2021/06/11 04:21:50;;;;;;;;;;;;;;;14.22;84.25;99345.44;6122534;23;20022;-84
2021/06/11 04:24:16;;;;;;;1.70;1.60;;;;;;;14.26;83.31;99339.59;6123455;23;19921;-80
2021/06/11 04:26:44;;;;;;;1.90;1.80;;;;;;;14.26;83.57;99353.19;6123366;23;20435;-80
2021/06/11 04:29:16;;;;;;;1.60;1.50;;;;;;;14.39;83.22;99350.72;6125921;23;20481;-80
2021/06/11 04:31:43;;;;;;;1.90;1.80;;;;;;;14.42;82.51;99347.66;6100802;23;20028;-80
2021/06/11 04:34:15;;;;;;;1.70;1.60;;;;;;;14.42;83.14;99345.75;6127259;23;20271;-84
2021/06/11 04:36:43;;;;;;;2.10;1.77;;;;;;;14.47;83.52;99345.19;6124601;23;20069;-82
2021/06/11 04:39:08;;;;;;;1.60;1.50;;;;;;;14.52;82.97;99350.16;6126838;23;20018;-83
2021/06/11 04:41:37;;;;;;;1.70;1.60;;;;;;;14.41;82.95;99351.41;6101056;23;20385;-82
2021/06/11 04:44:05;;;;;;;1.77;1.67;;;;;;;14.39;83.46;99350.72;6124275;23;20024;-83
2021/06/11 04:46:31;;;;;;;1.80;1.70;;;;;;;14.32;83.60;99356.03;6124039;23;20077;-82
2021/06/11 04:48:57;;;;;;;1.90;1.80;;;;;;;14.28;83.77;99356.59;6125815;23;20018;-84
2021/06/11 04:51:24;;;;;;;1.70;1.60;;;;;;;14.22;84.25;99350.88;6151357;23;20044;-83
2021/06/11 04:53:51;;;;;;;2.10;1.90;;;;;;;14.40;83.71;99363.28;6125580;23;20026;-81
2021/06/11 04:56:17;;;;;;;1.80;1.70;;;;;;;14.41;84.54;99354.13;6127034;23;20020;-80
2021/06/11 04:58:43;;;;;;;2.00;1.90;;;;;;;14.43;84.03;99357.47;6125693;23;20404;-82
2021/06/11 05:01:10;;;;;;;1.77;1.67;;;;;;;14.40;84.01;99352.41;6128263;23;20014;-82
2021/06/11 05:03:36;;;;;;;1.90;1.80;;;;;;;14.41;84.33;99354.13;6127283;23;20396;-84
2021/06/11 05:06:03;;;;;;;1.80;1.70;;;;;;;14.39;83.83;99348.00;6127642;23;20018;-85
2021/06/11 05:08:29;;;;;;;1.80;1.67;;;;;;;14.36;83.90;99353.81;6151252;23;20192;-81
2021/06/11 05:10:55;;;;;;;2.08;1.98;;;;;;;14.38;84.22;99333.56;6124870;23;20047;-82
2021/06/11 05:13:21;;;;;;;2.95;1.90;;;;;;;14.53;84.27;99347.22;6124955;23;20085;-82
2021/06/11 05:15:47;;;;;;;2.05;1.95;;;;;;;14.57;83.79;99351.28;6123652;23;20460;-81
2021/06/11 05:18:13;;;;;;;2.03;1.92;;;;;;;14.67;83.31;99349.13;6124087;23;20022;-82
2021/06/11 05:20:43;;;;;;;1.60;1.50;;;;;;;14.81;82.87;99349.31;6098154;23;20017;-81
2021/06/11 05:23:10;;;;;;;2.10;2.00;;;;;;;14.83;82.62;99341.84;6122416;23;20033;-81
2021/06/11 05:25:36;;;;;;;1.80;1.70;;;;;;;14.93;81.84;99343.25;6073734;23;20033;-83
2021/06/11 05:28:02;;;;;;;2.10;2.00;;;;;;;14.97;82.70;99338.28;6123918;23;20021;-82
2021/06/11 05:30:28;;;;;;;2.00;1.90;;;;;;;15.12;81.54;99336.41;6128418;23;20018;-80
2021/06/11 05:32:58;;;;;;;1.90;1.80;;;;;;;15.26;81.11;99336.59;6127053;23;20334;-82
2021/06/11 05:35:24;;;;;;;1.80;1.70;;;;;;;15.32;81.19;99343.97;6124538;23;20029;-82
2021/06/11 05:37:49;;;;;;;1.70;1.60;;;;;;;15.28;80.73;99339.94;6123769;23;20022;-81
2021/06/11 05:40:16;;;;;;;2.10;2.00;;;;;;;15.38;80.36;99340.50;6123563;23;20049;-81
2021/06/11 05:42:42;;;;;;;1.90;1.80;;;;;;;15.43;80.57;99344.38;6125117;23;20029;-83
2021/06/11 05:45:09;;;;;;;1.80;1.70;;;;;;;15.44;80.68;99339.75;6099773;23;20044;-81
2021/06/11 05:47:39;;;;;;;2.03;1.70;;;;;;;15.45;80.68;99341.44;6124190;23;20061;-80
2021/06/11 05:50:05;;;;;;;2.10;1.92;;;;;;;15.39;80.90;99342.19;6125142;23;20022;-83
2021/06/11 05:52:32;;;;;;;1.70;1.60;;;;;;;15.38;80.87;99335.91;6128289;23;20352;-83
2021/06/11 05:54:58;;;;;;;2.10;1.80;;;;;;;15.04;81.47;99336.50;6129025;23;20461;-81
2021/06/11 05:57:23;;;;;;;1.65;1.55;;;;;;;15.02;82.13;99341.28;6128200;23;20033;-82
2021/06/11 05:59:49;;;;;;;1.73;1.63;;;;;;;14.92;82.67;99329.84;6130940;23;20018;-82
2021/06/11 06:02:16;;;;;;;3.35;2.50;;;;;;;14.93;82.96;99342.41;6131075;23;20415;-85
2021/06/11 06:04:42;;;;;;;2.90;2.00;;;;;;;14.89;83.11;99335.66;6125007;23;20018;-83
2021/06/11 06:07:08;;;;;;;2.65;2.17;;;;;;;14.87;83.62;99337.72;6125382;23;20342;-80
2021/06/11 06:09:34;;;;;;;2.47;2.10;;;;;;;14.90;84.01;99348.22;6123552;23;20429;-81
2021/06/11 06:12:00;;;;;;;3.00;2.17;;;;;;;14.93;84.08;99342.41;6099359;23;20181;-84
2021/06/11 06:14:26;;;;;;;2.92;2.00;;;;;;;14.84;84.51;99348.97;6125526;23;20044;-83
2021/06/11 06:16:55;;;;;;;2.47;2.28;;;;;;;14.84;85.39;99357.13;6125597;23;20512;-78
2021/06/11 06:19:20;;;;;;;2.38;2.28;;;;;;;14.80;85.46;99361.25;6124595;23;20017;-81
2021/06/11 06:21:46;;;;;;;2.85;2.55;;;;;;;14.82;85.82;99367.38;6123243;23;20024;-83
2021/06/11 06:24:12;;;;;;;2.40;2.20;;;;;;;14.77;85.74;99348.00;6074893;23;20022;-83
2021/06/11 06:26:38;;;;;;;2.25;2.13;;;;;;;14.81;85.08;99357.50;6074937;23;20021;-84
2021/06/11 06:29:04;;;;;;;3.00;2.60;;;;;;;14.82;85.90;99364.66;6124366;23;20025;-82
2021/06/11 06:31:31;;;;;;;2.00;1.90;;;;;;;14.84;85.82;99370.72;6124746;23;20017;-82
2021/06/11 06:33:57;;;;;;;2.53;2.42;;;;;;;14.70;86.21;99356.94;6124611;23;20026;-84
2021/06/11 06:36:22;;;;;;;2.58;2.30;;;;;;;14.78;85.87;99366.06;6124043;23;20062;-83
2021/06/11 06:38:51;;;;;;;2.55;2.35;;;;;;;14.74;85.79;99370.19;6125611;23;20018;-82
2021/06/11 06:41:17;;;;;;;2.40;2.30;;;;;;;14.74;85.80;99359.28;6123680;23;20337;-82
2021/06/11 06:43:44;;;;;;;2.85;2.30;;;;;;;14.77;85.80;99364.34;6125495;23;20018;-84
2021/06/11 06:46:10;;;;;;;3.00;2.53;;;;;;;14.80;85.25;99363.97;6126481;23;20334;-83
2021/06/11 06:48:36;;;;;;;2.60;2.40;;;;;;;14.83;85.48;99372.63;6128310;23;20128;-83
2021/06/11 06:51:02;;;;;;;2.38;2.28;;;;;;;14.82;85.17;99373.66;6129005;23;20028;-85
2021/06/11 06:53:28;;;;;;;2.90;2.40;;;;;;;14.89;85.54;99358.28;6133443;23;20085;-82
2021/06/11 06:55:54;;;;;;;2.88;2.67;;;;;;;14.91;85.00;99358.91;6152400;23;20364;-83
2021/06/11 06:58:20;;;;;;;2.85;2.60;;;;;;;14.96;86.10;99361.09;6128095;23;20046;-85
2021/06/11 07:00:46;;;;;;;4.43;2.92;;;;;;;14.94;85.71;99349.53;6130239;23;20088;-81
2021/06/11 07:03:15;;;;;;;3.22;2.28;;;;;;;15.12;85.05;99358.19;6133358;23;20033;-85
2021/06/11 07:05:45;;;;;;;2.80;2.60;;;;;;;15.17;84.88;99361.19;6110759;23;20032;-84
2021/06/11 07:08:11;;;;;;;3.47;2.78;;;;;;;15.36;84.70;99353.50;6137097;23;20085;-84
2021/06/11 07:10:37;;;;;;;3.35;2.60;;;;;;;15.52;84.70;99345.09;6134682;23;20018;-85
2021/06/11 07:13:03;;;;;;;2.45;2.20;;;;;;;15.67;83.29;99343.22;6136821;23;20391;-84
2021/06/11 07:15:30;;;;;;;4.47;2.63;;;;;;;15.88;83.56;99342.41;6108895;23;20044;-84
2021/06/11 07:17:57;;;;;;;2.33;2.22;;;;;;;15.86;82.19;99338.19;6132923;23;20057;-84
2021/06/11 07:20:24;;;;;;;2.50;2.30;;;;;;;15.88;82.09;99341.56;6134839;23;20029;-84
2021/06/11 07:22:50;;;;;;;2.45;2.35;;;;;;;16.06;82.12;99346.56;6108105;23;20029;-83
2021/06/11 07:25:16;;;;;;;2.20;2.10;;;;;;;15.95;81.84;99339.75;6109978;23;20109;-84
2021/06/11 07:27:44;;;;;;;3.63;2.25;;;;;;;16.03;81.54;99345.06;6086877;23;20022;-83
2021/06/11 07:30:11;;;;;;;2.85;2.30;;;;;;;16.10;81.98;99351.44;6111839;23;20022;-84
2021/06/11 07:32:42;;;;;;;2.40;2.30;;;;;;;16.02;82.19;99337.94;6140560;23;20095;-84
2021/06/11 07:35:10;;;;;;;2.10;2.00;;;;;;;15.98;81.59;99339.38;6129386;23;20033;-84
2021/06/11 07:37:36;;;;;;;2.28;2.10;;;;;;;16.08;81.99;99347.22;6130005;23;20032;-84
2021/06/11 07:40:04;;;;;;;2.42;2.10;;;;;;;16.21;82.89;99352.81;6128811;23;20029;-83
2021/06/11 07:42:30;;;;;;;2.28;2.15;;;;;;;16.18;82.55;99357.81;6127761;23;20184;-83
2021/06/11 07:44:56;;;;;;;2.38;2.17;;;;;;;16.07;82.94;99357.28;6124693;23;20026;-84
2021/06/11 07:47:22;;;;;;;2.42;2.22;;;;;;;16.04;82.39;99352.22;6126211;23;20013;-84
2021/06/11 07:49:48;;;;;;;2.35;2.15;;;;;;;16.12;81.74;99353.97;6125176;23;20359;-85
2021/06/11 07:52:13;;;;;;;2.10;1.90;;;;;;;16.05;81.94;99355.78;6126742;23;20537;-82
2021/06/11 07:54:39;;;;;;;4.00;2.05;;;;;;;15.98;82.00;99350.28;6126830;23;20290;-83
2021/06/11 07:57:06;;;;;;;2.22;2.13;;;;;;;15.99;82.57;99360.13;6134823;23;20077;-83
2021/06/11 07:59:32;;;;;;;2.05;1.90;;;;;;;16.17;82.39;99361.59;6103648;23;20052;-84
2021/06/11 08:01:58;;;;;;;3.33;2.03;;;;;;;16.17;82.71;99367.03;6103314;23;20018;-83
2021/06/11 08:04:24;;;;;;;2.08;1.88;;;;;;;16.09;82.68;99360.69;6133430;23;20022;-84
2021/06/11 08:06:50;;;;;;;2.03;1.77;;;;;;;16.00;83.16;99360.97;6102182;23;20041;-84
2021/06/11 08:09:16;;;;;;;2.17;1.70;;;;;;;16.00;82.62;99361.81;6129108;23;20029;-80
2021/06/11 08:11:42;;;;;;;1.70;1.60;;;;;;;15.97;82.64;99355.91;6129420;23;20090;-83
2021/06/11 08:14:08;;;;;;;2.08;1.70;;;;;;;15.82;82.77;99358.69;6102056;23;20030;-79
2021/06/11 08:16:34;;;;;;;1.60;1.50;;;;;;;15.72;82.99;99352.69;6128762;23;20022;-83
2021/06/11 08:19:00;;;;;;;1.90;1.80;;;;;;;15.81;82.87;99360.56;6131183;23;20100;-84
2021/06/11 08:21:25;;;;;;;1.92;1.83;;;;;;;15.87;82.16;99358.97;6135750;23;20029;-83
2021/06/11 08:23:52;;;;;;;2.92;2.35;;;;;;;15.73;83.00;99366.13;6135912;23;20049;-84
2021/06/11 08:26:20;;;;;;;2.05;1.90;;;;;;;15.70;82.58;99371.13;6136614;23;20021;-83
2021/06/11 08:28:47;;;;;;;2.58;2.00;;;;;;;15.66;83.24;99366.06;6142463;23;20025;-84
2021/06/11 08:31:12;;;;;;;2.42;2.30;;;;;;;15.63;83.36;99366.41;6136193;23;20021;-84
2021/06/11 08:33:38;;;;;;;2.50;2.30;;;;;;;15.51;83.21;99373.38;6138489;23;20149;-83
2021/06/11 08:36:07;;;;;;;3.22;2.25;;;;;;;15.54;83.23;99370.28;6141759;23;20029;-84
2021/06/11 08:38:35;;;;;;;2.40;2.30;;;;;;;15.63;83.09;99371.84;6132162;23;20022;-83
2021/06/11 08:41:01;;;;;;;3.35;2.50;;;;;;;15.69;83.17;99374.91;6134524;23;20026;-82
2021/06/11 08:43:27;;;;;;;2.95;2.75;;;;;;;15.56;83.78;99368.19;6134841;23;20037;-86
2021/06/11 08:45:53;;;;;;;3.15;2.80;;;;;;;15.54;83.47;99367.56;6132529;23;20022;-85
2021/06/11 08:48:21;;;;;;;2.70;2.50;;;;;;;15.53;83.91;99376.75;6132731;23;20100;-84
2021/06/11 08:50:47;;;;;;;2.75;2.55;;;;;;;15.56;83.66;99372.81;6132883;23;20022;-84
2021/06/11 08:53:13;;;;;;;2.92;2.70;;;;;;;15.61;83.80;99367.63;6132068;23;20402;-85
2021/06/11 08:55:39;;;;;;;3.30;3.00;;;;;;;15.51;83.68;99369.81;6134253;23;20018;-85
2021/06/11 08:58:08;;;;;;;3.17;2.97;;;;;;;15.58;84.10;99366.13;6134032;23;20106;-83
2021/06/11 09:00:34;;;;;;;3.13;2.80;;;;;;;15.62;83.50;99375.63;6129913;23;20018;-85
2021/06/11 09:03:17;;;;;;;3.45;3.20;;;;;;;15.65;83.60;99372.56;6131464;23;20117;-84
2021/06/11 09:06:04;;;;;;;5.43;3.60;;;;;;;15.64;83.71;99368.09;6130898;23;20033;-85
2021/06/11 09:08:37;;;;;;;3.97;3.67;;;;;;;15.60;83.54;99371.38;6131508;23;20085;-84
2021/06/11 09:11:25;;;;;;;3.80;3.60;;;;;;;15.59;83.34;99369.69;6133340;23;20013;-85
2021/06/11 09:14:12;;;;;;;4.22;3.75;;;;;;;15.69;83.43;99372.16;6132214;23;20077;-85
2021/06/11 09:16:52;;;;;;;3.97;3.67;;;;;;;15.72;83.25;99369.03;6115506;23;20018;-82
2021/06/11 09:19:27;;;;;;;4.03;3.83;;;;;;;15.80;83.00;99371.69;6137541;23;20017;-83
2021/06/11 09:22:01;;;;;;;4.05;3.80;;;;;;;15.82;83.27;99373.16;6161096;23;20037;-84
2021/06/11 09:24:32;;;;;;;3.90;3.70;;;;;;;15.83;83.21;99372.13;6137333;23;20036;-84
2021/06/11 09:26:59;;;;;;;4.70;4.40;;;;;;;15.86;82.71;99370.88;6137133;23;20111;-85
2021/06/11 09:29:50;;;;;;;4.40;4.10;;;;;;;16.02;82.43;99373.38;6139591;23;20475;-85
2021/06/11 09:32:23;;;;;;;4.68;4.25;;;;;;;16.19;81.30;99364.94;6132978;23;20022;-85
2021/06/11 09:35:04;;;;;;;4.40;4.10;;;;;;;16.33;81.06;99373.06;6108695;23;20487;-85
2021/06/11 09:40:45;;;;;;;4.15;3.78;;;;;;;16.46;80.37;99366.91;6128785;23;20022;-84
2021/06/11 09:43:12;;;;;;;3.53;3.33;;;;;;;16.47;80.02;99373.19;6135220;23;20025;-83
2021/06/11 09:45:40;;;;;;;3.72;3.50;;;;;;;16.59;79.98;99375.19;6130094;23;20026;-81
2021/06/11 09:48:20;;;;;;;3.78;3.47;;;;;;;16.44;80.32;99377.16;6130832;23;20033;-84
2021/06/11 09:50:50;;;;;;;3.90;3.70;;;;;;;16.39;80.58;99372.28;6129345;23;20204;-84
2021/06/11 09:53:17;;;;;;;4.22;3.92;;;;;;;16.37;80.93;99368.91;6063379;23;20026;-82
2021/06/11 09:55:51;;;;;;;4.10;3.80;;;;;;;16.44;81.07;99368.97;6134029;23;20033;-83
2021/06/11 09:58:23;;;;;;;4.05;3.75;;;;;;;16.34;81.17;99373.91;6131963;23;20018;-83
2021/06/11 10:00:57;;;;;;;3.97;3.65;;;;;;;16.47;80.97;99384.13;6141218;23;20021;-82
2021/06/11 10:03:28;;;;;;;4.00;3.70;;;;;;;16.42;80.97;99381.97;6136348;23;20022;-85
2021/06/11 10:05:56;;;;;;;4.10;3.80;;;;;;;16.36;81.62;99377.28;6137182;23;20029;-82
2021/06/11 10:08:23;;;;;;;4.20;3.90;;;;;;;16.44;81.11;99374.41;6154790;23;20056;-81
2021/06/11 10:10:51;;;;;;;3.90;3.60;;;;;;;16.42;81.37;99379.25;6130884;23;20029;-84
2021/06/11 10:13:18;;;;;;;3.90;3.60;;;;;;;16.42;81.63;99376.53;6136889;23;20026;-84
2021/06/11 10:15:46;;;;;;;3.95;3.65;;;;;;;16.55;81.36;99376.63;6133070;23;20029;-83
2021/06/11 10:18:12;;;;;;;4.32;4.03;;;;;;;16.53;80.90;99384.19;6141042;23;20025;-83
2021/06/11 10:20:39;;;;;;;4.32;4.05;;;;;;;16.52;81.24;99381.63;6138570;23;20047;-83
2021/06/11 10:23:12;;;;;;;4.20;3.90;;;;;;;16.62;81.08;99377.53;6136015;23;20037;-83
2021/06/11 10:25:41;;;;;;;5.05;4.70;;;;;;;16.66;80.58;99383.44;6116902;23;20024;-84
2021/06/11 10:28:15;;;;;;;5.15;4.85;;;;;;;16.56;81.21;99383.78;6143765;23;20013;-85
2021/06/11 10:30:42;;;;;;;5.30;5.00;;;;;;;16.63;80.95;99387.38;6120207;23;20045;-85
2021/06/11 10:33:12;;;;;;;6.43;6.00;;;;;;;16.54;81.38;99388.59;6142695;23;20021;-84
2021/06/11 10:35:45;;;;;;;5.20;4.90;;;;;;;16.57;81.09;99393.66;6140262;23;20041;-82
2021/06/11 10:38:32;;;;;;;6.07;5.65;;;;;;;16.46;81.57;99394.19;6135856;23;20101;-84
2021/06/11 10:41:07;;;;;;;6.20;5.70;;;;;;;16.49;81.64;99399.25;6138622;23;20024;-85
2021/06/11 10:43:38;;;;;;;6.18;5.75;;;;;;;16.33;82.37;99391.31;6142936;23;20041;-82
2021/06/11 10:46:25;;;;;;;6.13;5.60;;;;;;;16.33;82.63;99397.63;6132670;23;20018;-84
2021/06/11 10:49:11;;;;;;;6.45;6.05;;;;;;;16.44;82.22;99396.25;6135242;23;20014;-84
2021/06/11 10:51:40;;;;;;;5.93;5.53;;;;;;;16.36;82.85;99393.66;6131993;23;20192;-82
2021/06/11 10:54:26;;;;;;;5.97;5.57;;;;;;;16.47;82.47;99395.88;6106253;23;20029;-84
2021/06/11 10:56:59;;;;;;;5.93;5.53;;;;;;;16.52;82.30;99389.81;6138642;23;20021;-83
2021/06/11 10:59:49;;;;;;;5.78;5.28;;;;;;;16.52;82.59;99393.38;6135304;23;20027;-84
2021/06/11 11:02:18;;;;;;;5.13;4.82;;;;;;;16.63;82.38;99390.13;6107069;23;20026;-84
2021/06/11 11:04:48;;;;;;;5.80;5.40;;;;;;;16.63;82.27;99394.75;6108174;23;20464;-84
2021/06/11 11:07:23;;;;;;;5.47;5.07;;;;;;;16.72;82.02;99392.72;6134465;23;20033;-84
2021/06/11 11:09:52;;;;;;;5.88;5.45;;;;;;;16.76;81.72;99394.06;6135655;23;20057;-83
2021/06/11 11:12:27;;;;;;;5.38;4.97;;;;;;;16.78;82.14;99387.38;6161038;23;20042;-84
2021/06/11 11:14:54;;;;;;;5.43;4.97;;;;;;;16.81;81.80;99391.56;6112182;23;20044;-84
2021/06/11 11:17:19;;;;;;;5.78;5.38;;;;;;;16.80;82.26;99378.97;6137033;23;20021;-85
2021/06/11 11:20:02;;;;;;;5.75;5.28;;;;;;;16.80;82.00;99381.69;6135742;23;20025;-85
2021/06/11 11:22:37;;;;;;;5.63;5.22;;;;;;;16.83;82.27;99389.50;6134760;23;20022;-81
2021/06/11 11:25:13;;;;;;;6.28;5.72;;;;;;;16.83;82.49;99378.56;6132526;23;20368;-85
2021/06/11 11:27:50;;;;;;;5.45;5.05;;;;;;;16.82;82.51;99377.72;6129622;23;20024;-84
2021/06/11 11:30:17;;;;;;;5.53;5.13;;;;;;;16.93;81.79;99379.06;6130741;23;20022;-85
2021/06/11 11:32:43;;;;;;;5.90;5.40;;;;;;;16.96;81.85;99384.13;6128183;23;20350;-85
2021/06/11 11:35:17;;;;;;;6.00;5.60;;;;;;;17.02;82.30;99372.41;6108883;23;20022;-83
2021/06/11 11:37:49;;;;;;;5.70;5.30;;;;;;;17.07;82.04;99380.81;6135600;23;20018;-85
2021/06/11 11:40:18;;;;;;;5.78;5.28;;;;;;;17.06;81.72;99379.16;6155043;23;20488;-84
2021/06/11 11:42:46;;;;;;;6.05;5.57;;;;;;;17.14;82.65;99374.56;6133958;23;20026;-84
2021/06/11 11:45:13;;;;;;;6.10;5.60;;;;;;;17.02;81.81;99372.41;6130266;23;20069;-84